createdAt,value
2022-09-20T00:00:10.473Z,94.62
2022-09-20T00:01:10.588Z,94.62
2022-09-20T00:02:10.418Z,94.51
2022-09-20T00:03:10.404Z,94.62
2022-09-20T00:04:10.450Z,94.51
2022-09-20T00:05:10.469Z,93.99
2022-09-20T00:06:10.367Z,93.99
2022-09-20T00:07:10.360Z,94.10
2022-09-20T00:08:10.342Z,94.24
2022-09-20T00:09:10.330Z,94.35
2022-09-20T00:10:10.314Z,94.45
2022-09-20T00:11:10.301Z,94.76
2022-09-20T00:12:10.289Z,94.93
2022-09-20T00:13:10.280Z,94.82
2022-09-20T00:14:10.264Z,94.82
2022-09-20T00:15:10.252Z,94.82
2022-09-20T00:16:10.320Z,94.62
2022-09-20T00:17:10.231Z,94.51
2022-09-20T00:18:10.219Z,94.45
2022-09-20T00:19:10.295Z,94.66
2022-09-20T00:20:10.188Z,94.56
2022-09-20T00:21:10.175Z,94.56
2022-09-20T00:22:10.163Z,94.66
2022-09-20T00:23:10.146Z,94.76
2022-09-20T00:24:10.131Z,94.76
2022-09-20T00:25:10.131Z,94.66
2022-09-20T00:26:10.104Z,94.87
2022-09-20T00:27:10.095Z,95.07
2022-09-20T00:28:10.083Z,95.49
2022-09-20T00:29:10.074Z,95.49
2022-09-20T00:30:10.060Z,95.39
2022-09-20T00:31:10.046Z,95.07
2022-09-20T00:32:10.185Z,94.97
2022-09-20T00:33:10.023Z,95.18
2022-09-20T00:34:10.011Z,95.28
2022-09-20T00:35:10.002Z,95.28
2022-09-20T00:36:09.986Z,95.28
2022-09-20T00:37:09.972Z,94.87
2022-09-20T00:38:09.967Z,95.07
2022-09-20T00:39:09.948Z,95.07
2022-09-20T00:40:10.014Z,95.07
2022-09-20T00:41:09.919Z,95.28
2022-09-20T00:42:09.909Z,95.18
2022-09-20T00:43:09.891Z,95.07
2022-09-20T00:44:09.881Z,94.60
2022-09-20T00:45:09.871Z,94.60
2022-09-20T00:46:09.902Z,94.60
2022-09-20T00:47:09.839Z,94.70
2022-09-20T00:48:09.851Z,95.01
2022-09-20T00:49:09.814Z,95.22
2022-09-20T00:50:09.804Z,95.22
2022-09-20T00:51:09.792Z,95.53
2022-09-20T00:52:09.784Z,95.64
2022-09-20T00:53:09.766Z,95.74
2022-09-20T00:54:09.751Z,95.74
2022-09-20T00:55:09.739Z,95.22
2022-09-20T00:56:09.735Z,94.70
2022-09-20T00:57:09.718Z,94.49
2022-09-20T00:58:09.700Z,94.66
2022-09-20T00:59:09.688Z,94.45
2022-09-20T01:00:09.675Z,94.08
2022-09-20T01:01:09.726Z,93.98
2022-09-20T01:02:09.716Z,93.98
2022-09-20T01:03:09.633Z,93.98
2022-09-20T01:04:09.645Z,94.08
2022-09-20T01:05:09.609Z,94.18
2022-09-20T01:06:09.597Z,94.29
2022-09-20T01:07:09.582Z,94.49
2022-09-20T01:08:09.575Z,94.54
2022-09-20T01:09:09.555Z,94.54
2022-09-20T01:10:09.544Z,94.95
2022-09-20T01:11:09.534Z,95.16
2022-09-20T01:12:09.519Z,95.16
2022-09-20T01:13:09.505Z,95.26
2022-09-20T01:14:09.497Z,95.47
2022-09-20T01:15:09.483Z,95.26
2022-09-20T01:16:09.549Z,95.26
2022-09-20T01:17:09.471Z,95.06
2022-09-20T01:18:09.444Z,95.06
2022-09-20T01:19:09.433Z,95.06
2022-09-20T01:20:09.443Z,95.06
2022-09-20T01:21:09.408Z,94.85
2022-09-20T01:22:09.399Z,94.54
2022-09-20T01:23:09.378Z,94.64
2022-09-20T01:24:09.363Z,94.74
2022-09-20T01:25:09.352Z,94.74
2022-09-20T01:26:09.337Z,95.06
2022-09-20T01:27:09.328Z,95.16
2022-09-20T01:28:09.312Z,94.85
2022-09-20T01:29:09.302Z,94.74
2022-09-20T01:30:09.289Z,94.33
2022-09-20T01:31:09.272Z,94.43
2022-09-20T01:32:09.344Z,94.54
2022-09-20T01:33:09.252Z,94.54
2022-09-20T01:34:09.303Z,94.58
2022-09-20T01:35:09.226Z,94.89
2022-09-20T01:36:09.236Z,94.68
2022-09-20T01:37:09.196Z,94.58
2022-09-20T01:38:09.185Z,94.89
2022-09-20T01:39:09.172Z,95.10
2022-09-20T01:40:09.230Z,95.10
2022-09-20T01:41:09.143Z,95.31
2022-09-20T01:42:09.136Z,95.10
2022-09-20T01:43:09.122Z,94.79
2022-09-20T01:44:09.107Z,95.10
2022-09-20T01:45:09.091Z,95.41
2022-09-20T01:46:09.121Z,95.31
2022-09-20T01:47:09.066Z,95.20
2022-09-20T01:48:09.056Z,95.20
2022-09-20T01:49:09.089Z,95.10
2022-09-20T01:50:09.027Z,94.89
2022-09-20T01:51:09.018Z,94.79
2022-09-20T01:52:09.029Z,94.58
2022-09-20T01:53:08.994Z,94.33
2022-09-20T01:54:08.977Z,94.02
2022-09-20T01:55:08.963Z,93.96
2022-09-20T01:56:08.952Z,93.65
2022-09-20T01:57:08.942Z,93.54
2022-09-20T01:58:08.926Z,93.75
2022-09-20T01:59:22.741Z,93.75
2022-09-20T02:00:09.930Z,93.75
2022-09-20T02:01:08.927Z,94.17
2022-09-20T02:02:08.939Z,94.48
2022-09-20T02:03:08.859Z,94.68
2022-09-20T02:04:08.854Z,94.58
2022-09-20T02:05:08.838Z,94.58
2022-09-20T02:06:08.826Z,94.37
2022-09-20T02:07:08.819Z,93.65
2022-09-20T02:08:08.821Z,93.85
2022-09-20T02:09:08.782Z,93.75
2022-09-20T02:10:08.766Z,93.90
2022-09-20T02:11:08.757Z,94.17
2022-09-20T02:12:08.745Z,94.27
2022-09-20T02:13:08.733Z,93.70
2022-09-20T02:14:08.788Z,93.59
2022-09-20T02:15:08.709Z,93.59
2022-09-20T02:16:08.756Z,93.90
2022-09-20T02:17:08.687Z,94.11
2022-09-20T02:18:08.665Z,94.26
2022-09-20T02:19:08.652Z,94.67
2022-09-20T02:20:08.636Z,94.78
2022-09-20T02:21:08.627Z,94.67
2022-09-20T02:22:08.617Z,94.78
2022-09-20T02:23:08.852Z,94.98
2022-09-20T02:24:08.610Z,94.98
2022-09-20T02:25:08.576Z,95.29
2022-09-20T02:26:08.561Z,95.50
2022-09-20T02:27:08.551Z,95.44
2022-09-20T02:28:08.537Z,95.81
2022-09-20T02:29:08.553Z,95.92
2022-09-20T02:30:08.510Z,96.02
2022-09-20T02:31:08.502Z,95.92
2022-09-20T02:32:08.547Z,95.92
2022-09-20T02:33:08.477Z,95.81
2022-09-20T02:34:08.463Z,95.71
2022-09-20T02:35:08.447Z,95.61
2022-09-20T02:36:08.434Z,95.40
2022-09-20T02:37:08.418Z,95.29
2022-09-20T02:38:08.411Z,95.50
2022-09-20T02:39:08.394Z,95.50
2022-09-20T02:40:08.500Z,95.19
2022-09-20T02:41:08.369Z,95.04
2022-09-20T02:42:08.359Z,94.36
2022-09-20T02:43:08.346Z,94.05
2022-09-20T02:44:08.419Z,94.15
2022-09-20T02:45:08.320Z,94.36
2022-09-20T02:46:08.364Z,94.88
2022-09-20T02:47:08.292Z,95.09
2022-09-20T02:48:08.276Z,95.09
2022-09-20T02:49:08.264Z,95.09
2022-09-20T02:50:08.254Z,94.78
2022-09-20T02:51:08.243Z,94.67
2022-09-20T02:52:08.237Z,94.78
2022-09-20T02:53:08.220Z,94.88
2022-09-20T02:54:08.201Z,94.67
2022-09-20T02:55:08.191Z,94.46
2022-09-20T02:56:08.204Z,94.46
2022-09-20T02:57:08.165Z,94.36
2022-09-20T02:58:08.150Z,94.40
2022-09-20T02:59:08.153Z,94.61
2022-09-20T03:00:08.128Z,94.92
2022-09-20T03:01:08.196Z,94.92
2022-09-20T03:02:08.143Z,95.03
2022-09-20T03:03:08.085Z,95.23
2022-09-20T03:04:08.072Z,95.23
2022-09-20T03:05:08.062Z,95.23
2022-09-20T03:06:08.052Z,95.44
2022-09-20T03:07:08.034Z,95.23
2022-09-20T03:08:08.020Z,95.44
2022-09-20T03:09:08.011Z,95.54
2022-09-20T03:10:08.005Z,95.44
2022-09-20T03:11:07.983Z,95.44
2022-09-20T03:12:07.993Z,95.34
2022-09-20T03:13:07.959Z,95.34
2022-09-20T03:14:07.982Z,95.44
2022-09-20T03:15:07.931Z,95.29
2022-09-20T03:16:07.993Z,95.29
2022-09-20T03:17:07.991Z,95.09
2022-09-20T03:18:07.895Z,95.09
2022-09-20T03:19:07.880Z,94.67
2022-09-20T03:20:07.867Z,94.46
2022-09-20T03:21:07.854Z,94.78
2022-09-20T03:22:07.837Z,95.03
2022-09-20T03:23:07.831Z,95.40
2022-09-20T03:24:07.821Z,95.29
2022-09-20T03:25:07.802Z,94.92
2022-09-20T03:26:07.792Z,94.82
2022-09-20T03:27:07.775Z,94.92
2022-09-20T03:28:07.791Z,94.92
2022-09-20T03:29:07.949Z,95.03
2022-09-20T03:30:07.739Z,95.03
2022-09-20T03:31:07.727Z,95.13
2022-09-20T03:32:07.789Z,95.54
2022-09-20T03:33:07.708Z,96.06
2022-09-20T03:34:07.687Z,96.27
2022-09-20T03:35:07.674Z,96.27
2022-09-20T03:36:07.664Z,95.86
2022-09-20T03:37:07.648Z,95.44
2022-09-20T03:38:07.636Z,95.03
2022-09-20T03:39:07.625Z,95.23
2022-09-20T03:40:07.671Z,95.54
2022-09-20T03:41:07.597Z,95.75
2022-09-20T03:42:07.590Z,95.54
2022-09-20T03:43:07.568Z,95.65
2022-09-20T03:44:07.661Z,96.17
2022-09-20T03:45:07.547Z,96.06
2022-09-20T03:46:07.623Z,95.65
2022-09-20T03:47:07.521Z,95.38
2022-09-20T03:48:07.507Z,95.38
2022-09-20T03:49:07.496Z,95.59
2022-09-20T03:50:07.486Z,96.11
2022-09-20T03:51:07.468Z,96.58
2022-09-20T03:52:07.459Z,96.79
2022-09-20T03:53:07.445Z,96.58
2022-09-20T03:54:07.436Z,96.37
2022-09-20T03:55:07.417Z,96.27
2022-09-20T03:56:07.404Z,96.06
2022-09-20T03:57:07.397Z,96.27
2022-09-20T03:58:09.022Z,96.37
2022-09-20T03:59:07.460Z,96.27
2022-09-20T04:00:07.381Z,96.33
2022-09-20T04:01:07.398Z,95.92
2022-09-20T04:02:07.418Z,95.54
2022-09-20T04:03:07.317Z,95.54
2022-09-20T04:04:07.305Z,95.75
2022-09-20T04:05:07.285Z,96.02
2022-09-20T04:06:07.277Z,96.23
2022-09-20T04:07:07.264Z,96.33
2022-09-20T04:08:07.254Z,96.23
2022-09-20T04:09:07.237Z,96.23
2022-09-20T04:10:07.218Z,96.33
2022-09-20T04:11:07.208Z,96.44
2022-09-20T04:12:07.202Z,96.60
2022-09-20T04:13:07.185Z,96.39
2022-09-20T04:14:11.302Z,96.33
2022-09-20T04:15:07.163Z,96.29
2022-09-20T04:16:07.201Z,96.29
2022-09-20T04:17:07.135Z,96.39
2022-09-20T04:18:07.118Z,96.29
2022-09-20T04:19:07.114Z,96.29
2022-09-20T04:20:07.096Z,96.19
2022-09-20T04:21:07.088Z,96.08
2022-09-20T04:22:07.077Z,95.98
2022-09-20T04:23:07.058Z,95.87
2022-09-20T04:24:07.044Z,95.98
2022-09-20T04:25:07.031Z,95.87
2022-09-20T04:26:07.022Z,95.92
2022-09-20T04:27:07.012Z,96.23
2022-09-20T04:28:06.993Z,96.33
2022-09-20T04:29:07.126Z,96.44
2022-09-20T04:30:06.969Z,96.60
2022-09-20T04:31:06.955Z,96.60
2022-09-20T04:32:07.040Z,96.81
2022-09-20T04:33:06.925Z,96.60
2022-09-20T04:34:06.915Z,96.50
2022-09-20T04:35:06.904Z,96.50
2022-09-20T04:36:06.890Z,96.60
2022-09-20T04:37:06.878Z,96.29
2022-09-20T04:38:06.871Z,96.29
2022-09-20T04:39:06.855Z,96.34
2022-09-20T04:40:06.900Z,96.24
2022-09-20T04:41:06.826Z,96.24
2022-09-20T04:42:06.814Z,96.03
2022-09-20T04:43:06.804Z,95.93
2022-09-20T04:44:06.928Z,95.87
2022-09-20T04:45:06.779Z,95.98
2022-09-20T04:46:06.903Z,95.87
2022-09-20T04:47:06.749Z,95.98
2022-09-20T04:48:06.761Z,96.19
2022-09-20T04:49:06.728Z,96.24
2022-09-20T04:50:06.711Z,96.24
2022-09-20T04:51:06.699Z,96.14
2022-09-20T04:52:06.690Z,96.14
2022-09-20T04:53:06.675Z,96.03
2022-09-20T04:54:06.665Z,96.03
2022-09-20T04:55:06.651Z,96.03
2022-09-20T04:56:06.634Z,96.14
2022-09-20T04:57:06.622Z,96.14
2022-09-20T04:58:06.610Z,96.24
2022-09-20T04:59:06.832Z,96.19
2022-09-20T05:00:06.584Z,96.55
2022-09-20T05:01:06.603Z,96.55
2022-09-20T05:02:06.651Z,96.76
2022-09-20T05:03:06.551Z,96.76
2022-09-20T05:04:06.559Z,96.66
2022-09-20T05:05:06.521Z,96.55
2022-09-20T05:06:06.507Z,96.45
2022-09-20T05:07:06.495Z,96.66
2022-09-20T05:08:06.488Z,96.76
2022-09-20T05:09:06.475Z,96.76
2022-09-20T05:10:06.466Z,96.45
2022-09-20T05:11:06.447Z,96.24
2022-09-20T05:12:06.430Z,96.24
2022-09-20T05:13:06.422Z,96.55
2022-09-20T05:14:06.408Z,96.66
2022-09-20T05:15:06.392Z,96.45
2022-09-20T05:16:06.486Z,96.55
2022-09-20T05:17:06.464Z,96.76
2022-09-20T05:18:06.361Z,96.66
2022-09-20T05:19:06.346Z,96.55
2022-09-20T05:20:06.354Z,96.34
2022-09-20T05:21:06.328Z,96.14
2022-09-20T05:22:06.307Z,96.24
2022-09-20T05:23:06.294Z,96.14
2022-09-20T05:24:08.434Z,96.03
2022-09-20T05:25:06.268Z,96.14
2022-09-20T05:26:06.253Z,96.34
2022-09-20T05:27:06.243Z,96.24
2022-09-20T05:28:06.233Z,96.24
2022-09-20T05:29:06.217Z,96.34
2022-09-20T05:30:06.198Z,96.34
2022-09-20T05:31:06.195Z,96.45
2022-09-20T05:32:06.296Z,96.45
2022-09-20T05:33:06.163Z,96.45
2022-09-20T05:34:06.164Z,96.50
2022-09-20T05:35:06.137Z,96.70
2022-09-20T05:36:06.150Z,96.81
2022-09-20T05:37:06.112Z,96.81
2022-09-20T05:38:06.101Z,97.12
2022-09-20T05:39:06.087Z,97.22
2022-09-20T05:40:06.138Z,97.33
2022-09-20T05:41:06.064Z,97.59
2022-09-20T05:42:06.046Z,97.80
2022-09-20T05:43:06.035Z,97.80
2022-09-20T05:44:06.104Z,97.69
2022-09-20T05:45:06.007Z,97.59
2022-09-20T05:46:06.022Z,97.38
2022-09-20T05:47:05.984Z,97.17
2022-09-20T05:48:05.973Z,97.03
2022-09-20T05:49:05.957Z,97.13
2022-09-20T05:50:05.949Z,97.03
2022-09-20T05:51:05.939Z,96.92
2022-09-20T05:52:05.957Z,96.61
2022-09-20T05:53:05.905Z,96.09
2022-09-20T05:54:05.893Z,95.99
2022-09-20T05:55:05.882Z,95.84
2022-09-20T05:56:05.870Z,95.84
2022-09-20T05:57:05.857Z,95.53
2022-09-20T05:58:05.845Z,95.22
2022-09-20T05:59:08.694Z,95.32
2022-09-20T06:00:05.822Z,95.22
2022-09-20T06:01:05.847Z,95.22
2022-09-20T06:02:05.813Z,95.43
2022-09-20T06:03:05.777Z,95.22
2022-09-20T06:04:05.769Z,95.01
2022-09-20T06:05:05.749Z,95.01
2022-09-20T06:06:05.744Z,95.12
2022-09-20T06:07:05.727Z,95.32
2022-09-20T06:08:05.738Z,95.43
2022-09-20T06:09:05.713Z,95.39
2022-09-20T06:10:05.693Z,94.97
2022-09-20T06:11:05.679Z,94.51
2022-09-20T06:12:05.667Z,93.99
2022-09-20T06:13:05.665Z,93.68
2022-09-20T06:14:05.825Z,93.23
2022-09-20T06:15:05.628Z,92.46
2022-09-20T06:16:05.612Z,91.49
2022-09-20T06:17:05.601Z,90.47
2022-09-20T06:18:05.590Z,89.17
2022-09-20T06:19:05.576Z,89.07
2022-09-20T06:20:05.560Z,88.45
2022-09-20T06:21:05.551Z,88.70
2022-09-20T06:22:05.545Z,89.22
2022-09-20T06:23:05.528Z,89.01
2022-09-20T06:24:05.525Z,89.42
2022-09-20T06:25:05.496Z,89.73
2022-09-20T06:26:05.485Z,89.94
2022-09-20T06:27:05.474Z,90.14
2022-09-20T06:28:05.455Z,90.25
2022-09-20T06:29:05.447Z,90.56
2022-09-20T06:30:05.437Z,90.45
2022-09-20T06:31:05.457Z,90.45
2022-09-20T06:32:05.408Z,89.83
2022-09-20T06:33:05.396Z,89.42
2022-09-20T06:34:05.388Z,89.98
2022-09-20T06:35:05.368Z,90.29
2022-09-20T06:36:05.358Z,90.29
2022-09-20T06:37:05.341Z,90.50
2022-09-20T06:38:05.329Z,90.91
2022-09-20T06:39:05.318Z,91.32
2022-09-20T06:40:05.399Z,91.01
2022-09-20T06:41:05.293Z,90.80
2022-09-20T06:42:05.279Z,91.17
2022-09-20T06:43:05.271Z,90.93
2022-09-20T06:44:05.467Z,90.10
2022-09-20T06:45:05.242Z,90.12
2022-09-20T06:46:05.272Z,87.03
2022-09-20T06:47:05.219Z,83.23
2022-09-20T06:48:05.204Z,77.94
2022-09-20T06:49:05.192Z,71.73
2022-09-20T06:50:05.184Z,67.18
2022-09-20T06:51:05.157Z,64.00
2022-09-20T06:52:05.157Z,60.43
2022-09-20T06:53:05.138Z,57.91
2022-09-20T06:54:05.135Z,56.10
2022-09-20T06:55:05.117Z,54.11
2022-09-20T06:56:05.119Z,53.14
2022-09-20T06:57:05.089Z,52.03
2022-09-20T06:58:05.073Z,53.58
2022-09-20T06:59:05.168Z,56.65
2022-09-20T07:00:05.053Z,58.60
2022-09-20T07:01:05.065Z,58.34
2022-09-20T07:02:05.081Z,57.03
2022-09-20T07:03:05.000Z,58.56
2022-09-20T07:04:04.999Z,60.88
2022-09-20T07:05:04.992Z,63.20
2022-09-20T07:06:04.974Z,64.86
2022-09-20T07:07:08.689Z,66.99
2022-09-20T07:08:04.955Z,68.90
2022-09-20T07:09:04.933Z,70.40
2022-09-20T07:10:04.924Z,72.48
2022-09-20T07:11:04.911Z,74.22
2022-09-20T07:12:04.924Z,75.70
2022-09-20T07:13:04.896Z,76.76
2022-09-20T07:14:05.006Z,78.58
2022-09-20T07:15:04.858Z,79.95
2022-09-20T07:16:04.845Z,81.12
2022-09-20T07:17:04.831Z,81.43
2022-09-20T07:18:04.824Z,81.67
2022-09-20T07:19:04.808Z,82.50
2022-09-20T07:20:04.802Z,83.22
2022-09-20T07:21:04.787Z,84.08
2022-09-20T07:22:04.765Z,84.39
2022-09-20T07:23:04.756Z,84.84
2022-09-20T07:24:04.748Z,85.46
2022-09-20T07:25:04.737Z,86.18
2022-09-20T07:26:04.722Z,86.49
2022-09-20T07:27:04.712Z,86.76
2022-09-20T07:28:04.722Z,86.35
2022-09-20T07:29:04.781Z,86.35
2022-09-20T07:30:04.672Z,86.15
2022-09-20T07:31:04.660Z,86.87
2022-09-20T07:32:04.670Z,86.45
2022-09-20T07:33:04.635Z,86.61
2022-09-20T07:34:04.615Z,86.72
2022-09-20T07:35:04.608Z,86.52
2022-09-20T07:36:04.588Z,86.82
2022-09-20T07:37:04.584Z,87.03
2022-09-20T07:38:04.567Z,86.82
2022-09-20T07:39:04.555Z,87.54
2022-09-20T07:40:04.574Z,88.17
2022-09-20T07:41:04.523Z,88.02
2022-09-20T07:42:04.536Z,87.54
2022-09-20T07:43:04.505Z,87.40
2022-09-20T07:44:04.518Z,87.03
2022-09-20T07:45:04.482Z,87.24
2022-09-20T07:46:04.507Z,86.99
2022-09-20T07:47:04.449Z,86.99
2022-09-20T07:48:04.441Z,87.30
2022-09-20T07:49:04.427Z,87.40
2022-09-20T07:50:04.422Z,86.79
2022-09-20T07:51:08.420Z,86.85
2022-09-20T07:52:04.393Z,86.74
2022-09-20T07:53:04.379Z,86.54
2022-09-20T07:54:04.359Z,85.68
2022-09-20T07:55:04.349Z,85.98
2022-09-20T07:56:04.364Z,85.88
2022-09-20T07:57:04.328Z,85.78
2022-09-20T07:58:04.316Z,85.74
2022-09-20T07:59:04.381Z,85.74
2022-09-20T08:00:04.323Z,85.94
2022-09-20T08:01:04.357Z,85.94
2022-09-20T08:02:04.314Z,86.05
2022-09-20T08:03:04.247Z,85.63
2022-09-20T08:04:04.231Z,85.39
2022-09-20T08:05:04.222Z,85.25
2022-09-20T08:06:04.210Z,85.25
2022-09-20T08:07:04.199Z,85.46
2022-09-20T08:08:04.189Z,85.14
2022-09-20T08:09:06.890Z,85.04
2022-09-20T08:10:05.187Z,85.31
2022-09-20T08:11:04.146Z,85.41
2022-09-20T08:14:06.201Z,85.62
2022-09-20T08:15:06.518Z,85.52
2022-09-20T08:16:04.118Z,85.72
2022-09-20T08:17:04.079Z,85.68
2022-09-20T08:18:04.056Z,85.47
2022-09-20T08:19:04.051Z,85.58
2022-09-20T08:20:04.045Z,84.82
2022-09-20T08:21:04.019Z,84.41
2022-09-20T08:22:04.012Z,84.72
2022-09-20T08:23:22.588Z,84.47
2022-09-20T08:24:05.019Z,83.86
2022-09-20T08:25:03.974Z,83.55
2022-09-20T08:26:03.953Z,83.34
2022-09-20T08:27:03.942Z,83.55
2022-09-20T08:28:03.934Z,83.25
2022-09-20T08:29:03.928Z,83.20
2022-09-20T08:30:03.906Z,84.12
2022-09-20T08:31:03.887Z,82.90
2022-09-20T08:32:03.970Z,82.39
2022-09-20T08:33:03.867Z,82.90
2022-09-20T08:34:03.880Z,82.90
2022-09-20T08:35:03.841Z,82.49
2022-09-20T08:36:03.825Z,83.31
2022-09-20T08:37:03.813Z,83.00
2022-09-20T08:40:03.861Z,81.12
2022-09-20T08:41:03.762Z,81.63
2022-09-20T08:42:03.753Z,83.06
2022-09-20T08:43:05.533Z,82.21
2022-09-20T08:44:03.716Z,82.00
2022-09-20T08:45:03.714Z,81.08
2022-09-20T08:46:06.842Z,80.77
2022-09-20T08:47:03.684Z,80.57
2022-09-20T08:48:03.698Z,79.54
2022-09-20T08:49:03.654Z,79.75
2022-09-20T08:50:11.489Z,77.70
2022-09-20T08:51:05.588Z,78.31
2022-09-20T08:52:03.621Z,77.80
2022-09-20T08:53:03.605Z,79.30
2022-09-20T08:54:03.588Z,79.10
2022-09-20T08:55:07.720Z,77.26
2022-09-20T08:56:03.572Z,76.43
2022-09-20T08:57:03.565Z,77.67
2022-09-20T08:58:08.184Z,77.87
2022-09-20T08:59:03.534Z,76.34
2022-09-20T09:00:03.516Z,76.13
2022-09-20T09:01:03.557Z,76.81
2022-09-20T09:02:03.520Z,75.99
2022-09-20T09:03:03.477Z,76.30
2022-09-20T09:04:03.489Z,75.14
2022-09-20T09:05:03.458Z,75.31
2022-09-20T09:06:05.595Z,75.10
2022-09-20T09:07:03.425Z,73.27
2022-09-20T09:08:04.524Z,70.92
2022-09-20T09:09:03.408Z,71.73
2022-09-20T09:10:03.393Z,72.65
2022-09-20T09:11:03.368Z,71.53
2022-09-20T09:12:03.361Z,71.12
2022-09-20T09:13:03.350Z,70.43
2022-09-20T09:14:03.329Z,70.75
2022-09-20T09:15:03.322Z,69.82
2022-09-20T09:16:03.303Z,70.40
2022-09-20T09:17:03.353Z,69.59
2022-09-20T09:18:03.285Z,66.72
2022-09-20T09:19:03.267Z,67.65
2022-09-20T09:20:03.279Z,68.66
2022-09-20T09:21:03.257Z,67.54
2022-09-20T09:22:03.245Z,66.62
2022-09-20T09:23:03.234Z,66.62
2022-09-20T09:24:03.212Z,68.57
2022-09-20T09:25:03.196Z,68.36
2022-09-20T09:26:03.186Z,66.72
2022-09-20T09:27:03.167Z,66.25
2022-09-20T09:28:03.156Z,66.04
2022-09-20T09:29:03.144Z,64.92
2022-09-20T09:30:03.131Z,65.53
2022-09-20T09:31:03.116Z,66.96
2022-09-20T09:32:03.164Z,65.43
2022-09-20T09:33:03.099Z,66.72
2022-09-20T09:34:03.088Z,65.19
2022-09-20T09:35:03.064Z,65.09
2022-09-20T09:36:03.074Z,64.58
2022-09-20T09:37:03.044Z,63.43
2022-09-20T09:38:03.037Z,63.73
2022-09-20T09:39:03.021Z,64.86
2022-09-20T09:40:03.223Z,64.62
2022-09-20T09:41:02.990Z,62.99
2022-09-20T09:42:02.978Z,62.17
2022-09-20T09:43:02.965Z,62.76
2022-09-20T09:44:02.951Z,60.41
2022-09-20T09:45:02.933Z,61.32
2022-09-20T09:46:02.947Z,63.54
2022-09-20T09:47:02.910Z,64.32
2022-09-20T09:48:02.901Z,62.80
2022-09-20T09:49:02.885Z,60.66
2022-09-20T09:50:09.740Z,57.90
2022-09-20T09:51:03.897Z,59.12
2022-09-20T09:52:02.874Z,59.03
2022-09-20T09:53:02.842Z,59.74
2022-09-20T09:54:02.820Z,59.97
2022-09-20T09:55:05.354Z,59.56
2022-09-20T09:56:02.793Z,59.77
2022-09-20T09:57:02.782Z,61.09
2022-09-20T09:58:02.769Z,62.52
2022-09-20T09:59:02.779Z,61.12
2022-09-20T10:00:06.715Z,60.82
2022-09-20T10:01:03.822Z,60.30
2022-09-20T10:02:02.766Z,61.12
2022-09-20T10:03:02.714Z,60.92
2022-09-20T10:04:02.693Z,62.32
2022-09-20T10:05:02.678Z,61.60
2022-09-20T10:06:02.669Z,60.69
2022-09-20T10:07:02.659Z,59.59
2022-09-20T10:08:02.678Z,60.71
2022-09-20T10:09:02.625Z,59.18
2022-09-20T10:10:02.615Z,59.39
2022-09-20T10:11:02.607Z,59.28
2022-09-20T10:12:02.592Z,59.28
2022-09-20T10:13:02.582Z,59.87
2022-09-20T10:14:02.566Z,60.38
2022-09-20T10:15:02.561Z,61.30
2022-09-20T10:16:02.538Z,61.68
2022-09-20T10:17:02.526Z,61.07
2022-09-20T10:18:02.512Z,60.14
2022-09-20T10:19:02.499Z,59.84
2022-09-20T10:20:02.487Z,60.05
2022-09-20T10:21:02.483Z,61.65
2022-09-20T10:22:02.462Z,59.51
2022-09-20T10:23:30.414Z,60.53
2022-09-20T10:24:04.692Z,59.41
2022-09-20T10:25:02.429Z,60.53
2022-09-20T10:26:02.416Z,60.63
2022-09-20T10:27:02.401Z,61.75
2022-09-20T10:28:02.388Z,61.04
2022-09-20T10:29:02.382Z,62.36
2022-09-20T10:30:02.355Z,61.75
2022-09-20T10:31:02.401Z,60.83
2022-09-20T10:32:02.338Z,60.55
2022-09-20T10:33:02.320Z,60.55
2022-09-20T10:34:02.318Z,60.42
2022-09-20T10:35:02.297Z,59.71
2022-09-20T10:36:02.290Z,58.69
2022-09-20T10:37:02.271Z,59.41
2022-09-20T10:38:02.259Z,60.83
2022-09-20T10:39:02.249Z,58.89
2022-09-20T10:40:02.328Z,59.68
2022-09-20T10:41:02.216Z,59.78
2022-09-20T10:42:02.203Z,57.75
2022-09-20T10:43:02.192Z,57.34
2022-09-20T10:44:05.344Z,57.44
2022-09-20T10:45:02.181Z,57.44
2022-09-20T10:46:30.788Z,58.87
2022-09-20T10:47:03.249Z,57.95
2022-09-20T10:48:02.127Z,57.65
2022-09-20T10:49:02.126Z,57.85
2022-09-20T10:50:02.100Z,57.75
2022-09-20T10:51:02.104Z,56.52
2022-09-20T10:52:02.076Z,55.91
2022-09-20T10:53:02.077Z,58.15
2022-09-20T10:54:02.051Z,57.95
2022-09-20T10:55:02.043Z,56.73
2022-09-20T10:56:02.059Z,58.46
2022-09-20T10:57:02.022Z,57.85
2022-09-20T10:58:02.006Z,56.73
2022-09-20T10:59:01.993Z,57.14
2022-09-20T11:00:01.977Z,57.24
2022-09-20T11:01:02.063Z,57.44
2022-09-20T11:02:02.051Z,59.38
2022-09-20T11:03:01.934Z,57.85
2022-09-20T11:04:01.929Z,57.75
2022-09-20T11:05:01.939Z,57.82
2022-09-20T11:06:01.905Z,58.94
2022-09-20T11:07:01.887Z,57.42
2022-09-20T11:08:01.890Z,58.81
2022-09-20T11:09:01.865Z,58.20
2022-09-20T11:10:01.845Z,56.68
2022-09-20T11:11:01.833Z,57.46
2022-09-20T11:12:01.845Z,56.85
2022-09-20T11:13:01.809Z,57.26
2022-09-20T11:14:01.803Z,58.17
2022-09-20T11:15:01.792Z,57.56
2022-09-20T11:16:01.778Z,58.17
2022-09-20T11:17:01.854Z,57.69
2022-09-20T11:18:01.749Z,57.90
2022-09-20T11:19:01.741Z,57.69
2022-09-20T11:20:06.865Z,57.31
2022-09-20T11:21:01.712Z,57.72
2022-09-20T11:22:01.706Z,58.53
2022-09-20T11:23:01.682Z,58.23
2022-09-20T11:24:01.669Z,58.84
2022-09-20T11:25:07.668Z,59.75
2022-09-20T11:26:01.658Z,58.03
2022-09-20T11:27:01.636Z,57.92
2022-09-20T11:28:01.639Z,58.13
2022-09-20T11:29:01.606Z,58.33
2022-09-20T11:30:01.606Z,58.84
2022-09-20T11:31:01.587Z,58.13
2022-09-20T11:32:01.700Z,58.03
2022-09-20T11:33:01.584Z,57.92
2022-09-20T11:34:01.567Z,57.75
2022-09-20T11:35:01.529Z,57.44
2022-09-20T11:36:01.539Z,57.42
2022-09-20T11:37:01.533Z,58.64
2022-09-20T11:38:01.488Z,57.11
2022-09-20T11:39:01.486Z,56.02
2022-09-20T11:40:01.612Z,56.73
2022-09-20T11:41:01.459Z,57.75
2022-09-20T11:42:01.445Z,57.95
2022-09-20T11:43:01.434Z,59.55
2022-09-20T11:44:01.437Z,60.47
2022-09-20T11:45:01.408Z,57.52
2022-09-20T11:46:01.480Z,58.23
2022-09-20T11:47:01.381Z,58.13
2022-09-20T11:48:01.369Z,57.79
2022-09-20T11:49:01.354Z,56.77
2022-09-20T11:50:01.341Z,53.83
2022-09-20T11:51:01.335Z,54.03
2022-09-20T11:52:01.321Z,54.03
2022-09-20T11:53:01.316Z,53.93
2022-09-20T11:54:01.298Z,54.77
2022-09-20T11:55:01.296Z,55.79
2022-09-20T11:56:01.281Z,56.16
2022-09-20T11:57:01.265Z,55.76
2022-09-20T11:58:01.237Z,55.76
2022-09-20T11:59:01.237Z,52.71
2022-09-20T12:00:01.232Z,50.87
2022-09-20T12:01:01.214Z,51.39
2022-09-20T12:02:01.274Z,53.93
2022-09-20T12:03:01.356Z,53.42
2022-09-20T12:04:27.967Z,53.42
2022-09-20T12:05:02.175Z,51.28
2022-09-20T12:06:01.143Z,50.26
2022-09-20T12:07:05.897Z,51.69
2022-09-20T12:08:02.163Z,51.79
2022-09-20T12:09:01.099Z,52.30
2022-09-20T12:10:01.078Z,52.30
2022-09-20T12:11:01.069Z,51.59
2022-09-20T12:12:01.058Z,52.00
2022-09-20T12:13:01.042Z,51.89
2022-09-20T12:14:01.031Z,51.08
2022-09-20T12:15:01.024Z,50.78
2022-09-20T12:16:01.035Z,50.87
2022-09-20T12:17:00.997Z,52.40
2022-09-20T12:18:04.345Z,52.00
2022-09-20T12:19:00.976Z,52.20
2022-09-20T12:20:00.958Z,51.69
2022-09-20T12:21:00.941Z,53.02
2022-09-20T12:22:00.933Z,53.72
2022-09-20T12:23:00.915Z,53.11
2022-09-20T12:24:00.910Z,53.42
2022-09-20T12:25:00.887Z,53.75
2022-09-20T12:26:00.877Z,53.96
2022-09-20T12:27:00.864Z,55.18
2022-09-20T12:28:00.860Z,55.38
2022-09-20T12:29:00.840Z,55.07
2022-09-20T12:30:00.830Z,56.20
2022-09-20T12:31:00.821Z,56.60
2022-09-20T12:32:00.956Z,56.50
2022-09-20T12:33:00.791Z,57.52
2022-09-20T12:34:00.788Z,58.13
2022-09-20T12:35:00.765Z,57.52
2022-09-20T12:36:00.752Z,58.84
2022-09-20T12:37:00.735Z,59.86
2022-09-20T12:38:00.745Z,60.37
2022-09-20T12:39:00.710Z,58.23
2022-09-20T12:40:00.725Z,58.74
2022-09-20T12:41:00.688Z,59.14
2022-09-20T12:42:00.676Z,58.33
2022-09-20T12:43:00.659Z,58.53
2022-09-20T12:44:00.649Z,58.33
2022-09-20T12:45:00.632Z,59.86
2022-09-20T12:46:05.377Z,59.42
2022-09-20T12:47:01.648Z,59.63
2022-09-20T12:48:00.621Z,59.91
2022-09-20T12:49:00.584Z,58.17
2022-09-20T12:50:00.572Z,56.75
2022-09-20T12:51:00.553Z,57.43
2022-09-20T12:52:00.537Z,57.87
2022-09-20T12:53:00.566Z,58.38
2022-09-20T12:54:00.517Z,56.85
2022-09-20T12:55:04.735Z,56.77
2022-09-20T12:56:01.532Z,56.07